EZY0605 EDDP-EDDM
Flight info
| Callsign | EZY0605 |
|---|---|
| Flight time | 0h 44m |
| Altitude | 29000 |
| Route | GOLAT2Q/08L GOLAT T202 ALOSO T703 LULAR/N0468F300 T105 LANDU LANDU2B |
| Aircraft | A320/M-SDE3FGHIRWY/LB1 |
Departure
| Time | 2026-05-06 21:08 |
|---|---|
| Airport | Leipzig/Halle Airport (EDDP) |
Arrival
| Time | 2026-05-06 21:53 |
|---|---|
| Airport | Munich Airport (EDDM) |
| Time | Latitude | Longitude | Altitude | Speed | Heading |
|---|---|---|---|---|---|
| 2026-05-06 19:42 | 51.41932 | 12.21880 | 441 ft | 0 kts | 15° |
| 2026-05-06 20:54 | 51.41931 | 12.21880 | 440 ft | 0 kts | 15° |
| 2026-05-06 20:54 | 51.41919 | 12.21875 | 431 ft | 3 kts | 14° |
| 2026-05-06 20:54 | 51.41899 | 12.21867 | 435 ft | 3 kts | 11° |
| 2026-05-06 20:54 | 51.41887 | 12.21864 | 437 ft | 3 kts | 8° |
| 2026-05-06 20:55 | 51.41867 | 12.21860 | 432 ft | 3 kts | 0° |
| 2026-05-06 20:55 | 51.41847 | 12.21862 | 439 ft | 3 kts | 340° |
| 2026-05-06 20:55 | 51.41833 | 12.21875 | 427 ft | 2 kts | 292° |
| 2026-05-06 20:55 | 51.41831 | 12.21880 | 427 ft | 0 kts | 285° |
| 2026-05-06 20:59 | 51.41834 | 12.21863 | 440 ft | 10 kts | 285° |
| 2026-05-06 20:59 | 51.41875 | 12.21644 | 435 ft | 26 kts | 287° |
| 2026-05-06 21:00 | 51.41927 | 12.21353 | 427 ft | 29 kts | 288° |
| 2026-05-06 21:00 | 51.41974 | 12.21028 | 427 ft | 29 kts | 274° |
| 2026-05-06 21:00 | 51.42027 | 12.20749 | 421 ft | 27 kts | 280° |
| 2026-05-06 21:00 | 51.42033 | 12.20696 | 425 ft | 0 kts | 284° |
| 2026-05-06 21:01 | 51.42037 | 12.20684 | 425 ft | 7 kts | 298° |
| 2026-05-06 21:01 | 51.42071 | 12.20693 | 419 ft | 2 kts | 94° |
| 2026-05-06 21:01 | 51.42066 | 12.20707 | 419 ft | 1 kts | 126° |
| 2026-05-06 21:02 | 51.42043 | 12.20740 | 420 ft | 6 kts | 140° |
| 2026-05-06 21:02 | 51.42013 | 12.20806 | 421 ft | 9 kts | 105° |
| 2026-05-06 21:02 | 51.42031 | 12.20908 | 414 ft | 12 kts | 41° |
| 2026-05-06 21:02 | 51.42110 | 12.20957 | 424 ft | 2 kts | 16° |
| 2026-05-06 21:03 | 51.42155 | 12.20974 | 430 ft | 20 kts | 11° |
| 2026-05-06 21:03 | 51.42269 | 12.21030 | 431 ft | 27 kts | 21° |
| 2026-05-06 21:03 | 51.42443 | 12.21095 | 442 ft | 24 kts | 19° |
| 2026-05-06 21:03 | 51.42609 | 12.21165 | 437 ft | 25 kts | 16° |
| 2026-05-06 21:04 | 51.42740 | 12.21223 | 434 ft | 29 kts | 14° |
| 2026-05-06 21:04 | 51.42924 | 12.21336 | 427 ft | 28 kts | 46° |
| 2026-05-06 21:04 | 51.42995 | 12.21459 | 430 ft | 0 kts | 46° |
| 2026-05-06 21:06 | 51.42998 | 12.21464 | 430 ft | 3 kts | 46° |
| 2026-05-06 21:07 | 51.43036 | 12.21520 | 427 ft | 12 kts | 42° |
| 2026-05-06 21:07 | 51.43115 | 12.21646 | 428 ft | 18 kts | 49° |
| 2026-05-06 21:07 | 51.43129 | 12.21762 | 438 ft | 16 kts | 84° |
| 2026-05-06 21:07 | 51.43147 | 12.22100 | 436 ft | 62 kts | 84° |
| 2026-05-06 21:08 | 51.43193 | 12.23096 | 434 ft | 120 kts | 86° |
| 2026-05-06 21:08 | 51.43261 | 12.24484 | 447 ft | 162 kts | 86° |
| 2026-05-06 21:08 | 51.43320 | 12.26101 | 694 ft | 174 kts | 86° |
| 2026-05-06 21:08 | 51.43409 | 12.28010 | 1678 ft | 160 kts | 88° |
| 2026-05-06 21:09 | 51.43500 | 12.29732 | 2307 ft | 154 kts | 89° |
| 2026-05-06 21:09 | 51.43597 | 12.31456 | 2764 ft | 163 kts | 87° |
| 2026-05-06 21:09 | 51.43688 | 12.33403 | 2985 ft | 188 kts | 87° |
| 2026-05-06 21:09 | 51.43783 | 12.35623 | 3289 ft | 211 kts | 87° |
| 2026-05-06 21:10 | 51.43887 | 12.38097 | 3640 ft | 234 kts | 86° |
| 2026-05-06 21:10 | 51.44004 | 12.40832 | 4027 ft | 258 kts | 86° |
| 2026-05-06 21:10 | 51.44136 | 12.43780 | 4698 ft | 270 kts | 85° |
| 2026-05-06 21:10 | 51.44263 | 12.46814 | 5514 ft | 276 kts | 89° |
| 2026-05-06 21:11 | 51.43947 | 12.49847 | 6331 ft | 280 kts | 112° |
| 2026-05-06 21:11 | 51.42918 | 12.52509 | 7126 ft | 282 kts | 135° |
| 2026-05-06 21:11 | 51.41342 | 12.54337 | 7944 ft | 282 kts | 158° |
| 2026-05-06 21:11 | 51.39474 | 12.55090 | 8785 ft | 281 kts | 178° |
| 2026-05-06 21:12 | 51.37515 | 12.55300 | 9663 ft | 283 kts | 178° |
| 2026-05-06 21:12 | 51.35511 | 12.55511 | 10175 ft | 298 kts | 178° |
| 2026-05-06 21:12 | 51.33360 | 12.55740 | 10398 ft | 321 kts | 178° |
| 2026-05-06 21:12 | 51.31055 | 12.55989 | 10561 ft | 345 kts | 178° |
| 2026-05-06 21:13 | 51.28608 | 12.56261 | 10875 ft | 360 kts | 177° |
| 2026-05-06 21:13 | 51.26936 | 12.56452 | 11271 ft | 364 kts | 177° |
| 2026-05-06 21:13 | 51.24187 | 12.56763 | 11972 ft | 369 kts | 177° |
| 2026-05-06 21:13 | 51.21613 | 12.57052 | 12638 ft | 373 kts | 177° |
| 2026-05-06 21:14 | 51.19024 | 12.57030 | 13278 ft | 375 kts | 188° |
| 2026-05-06 21:14 | 51.16483 | 12.56059 | 13895 ft | 377 kts | 201° |
| 2026-05-06 21:14 | 51.14176 | 12.54169 | 14486 ft | 379 kts | 215° |
| 2026-05-06 21:14 | 51.12188 | 12.51419 | 15095 ft | 381 kts | 228° |
| 2026-05-06 21:15 | 51.10648 | 12.47981 | 15691 ft | 384 kts | 240° |
| 2026-05-06 21:15 | 51.09333 | 12.44260 | 16311 ft | 386 kts | 240° |
| 2026-05-06 21:15 | 51.08011 | 12.40530 | 16923 ft | 389 kts | 240° |
| 2026-05-06 21:15 | 51.06676 | 12.36773 | 17515 ft | 392 kts | 240° |
| 2026-05-06 21:16 | 51.05328 | 12.32996 | 18099 ft | 394 kts | 240° |
| 2026-05-06 21:16 | 51.03964 | 12.29189 | 18598 ft | 397 kts | 239° |
| 2026-05-06 21:16 | 51.03018 | 12.26550 | 18916 ft | 399 kts | 239° |
| 2026-05-06 21:16 | 51.02083 | 12.23939 | 19257 ft | 400 kts | 239° |
| 2026-05-06 21:17 | 51.00998 | 12.20916 | 19646 ft | 402 kts | 239° |
| 2026-05-06 21:17 | 50.99605 | 12.17048 | 20125 ft | 404 kts | 239° |
| 2026-05-06 21:17 | 50.98205 | 12.13163 | 20593 ft | 406 kts | 239° |
| 2026-05-06 21:17 | 50.97084 | 12.10058 | 20957 ft | 408 kts | 239° |
| 2026-05-06 21:18 | 50.96017 | 12.07104 | 21282 ft | 410 kts | 239° |
| 2026-05-06 21:18 | 50.94597 | 12.03177 | 21711 ft | 412 kts | 239° |
| 2026-05-06 21:18 | 50.93171 | 11.99237 | 22140 ft | 414 kts | 239° |
| 2026-05-06 21:18 | 50.91921 | 11.96159 | 22455 ft | 415 kts | 233° |
| 2026-05-06 21:19 | 50.90021 | 11.92710 | 22854 ft | 417 kts | 224° |
| 2026-05-06 21:19 | 50.87813 | 11.89824 | 23237 ft | 419 kts | 216° |
| 2026-05-06 21:19 | 50.85406 | 11.87083 | 23597 ft | 421 kts | 216° |
| 2026-05-06 21:19 | 50.83477 | 11.84866 | 23876 ft | 422 kts | 216° |
| 2026-05-06 21:20 | 50.81277 | 11.82323 | 24208 ft | 422 kts | 216° |
| 2026-05-06 21:20 | 50.78902 | 11.79578 | 24563 ft | 423 kts | 216° |
| 2026-05-06 21:20 | 50.76507 | 11.76879 | 24897 ft | 423 kts | 212° |
| 2026-05-06 21:20 | 50.73903 | 11.74744 | 25222 ft | 424 kts | 202° |
| 2026-05-06 21:21 | 50.71821 | 11.73668 | 25458 ft | 426 kts | 194° |
| 2026-05-06 21:21 | 50.69432 | 11.73035 | 25711 ft | 427 kts | 186° |
| 2026-05-06 21:21 | 50.66445 | 11.73060 | 26013 ft | 430 kts | 176° |
| 2026-05-06 21:21 | 50.63504 | 11.73947 | 26306 ft | 434 kts | 166° |
| 2026-05-06 21:22 | 50.60616 | 11.75429 | 26601 ft | 435 kts | 165° |
| 2026-05-06 21:22 | 50.57744 | 11.76916 | 26879 ft | 435 kts | 165° |
| 2026-05-06 21:22 | 50.55123 | 11.78272 | 27105 ft | 435 kts | 165° |
| 2026-05-06 21:22 | 50.52500 | 11.79630 | 27325 ft | 436 kts | 165° |
| 2026-05-06 21:23 | 50.50184 | 11.80824 | 27502 ft | 435 kts | 165° |
| 2026-05-06 21:23 | 50.47243 | 11.82336 | 27716 ft | 436 kts | 164° |
| 2026-05-06 21:23 | 50.44427 | 11.84103 | 27899 ft | 438 kts | 160° |
| 2026-05-06 21:23 | 50.41624 | 11.86003 | 28072 ft | 438 kts | 160° |
| 2026-05-06 21:24 | 50.38826 | 11.87903 | 28264 ft | 437 kts | 160° |
| 2026-05-06 21:24 | 50.36351 | 11.89582 | 28476 ft | 436 kts | 160° |
| 2026-05-06 21:24 | 50.33696 | 11.91387 | 28707 ft | 434 kts | 160° |
| 2026-05-06 21:25 | 50.28727 | 11.94739 | 28838 ft | 428 kts | 160° |
| 2026-05-06 21:25 | 50.23260 | 11.98397 | 28837 ft | 427 kts | 160° |
| 2026-05-06 21:26 | 50.18326 | 12.01716 | 28834 ft | 427 kts | 160° |
| 2026-05-06 21:26 | 50.13783 | 12.04780 | 28827 ft | 427 kts | 159° |
| 2026-05-06 21:27 | 50.08718 | 12.08178 | 28831 ft | 432 kts | 160° |
| 2026-05-06 21:27 | 50.03866 | 12.11400 | 28829 ft | 438 kts | 159° |
| 2026-05-06 21:28 | 49.98314 | 12.15096 | 28827 ft | 441 kts | 159° |
| 2026-05-06 21:28 | 49.93176 | 12.18526 | 28828 ft | 441 kts | 159° |
| 2026-05-06 21:29 | 49.87628 | 12.22217 | 28822 ft | 441 kts | 159° |
| 2026-05-06 21:29 | 49.82574 | 12.25562 | 28820 ft | 441 kts | 159° |
| 2026-05-06 21:30 | 49.78177 | 12.28459 | 28813 ft | 441 kts | 159° |
| 2026-05-06 21:30 | 49.73066 | 12.31913 | 28812 ft | 443 kts | 154° |
| 2026-05-06 21:31 | 49.68292 | 12.36981 | 28809 ft | 447 kts | 146° |
| 2026-05-06 21:31 | 49.64860 | 12.41019 | 28808 ft | 447 kts | 146° |
| 2026-05-06 21:32 | 49.60064 | 12.46619 | 28815 ft | 448 kts | 146° |
| 2026-05-06 21:32 | 49.52963 | 12.54850 | 28822 ft | 448 kts | 146° |
| 2026-05-06 21:33 | 49.47981 | 12.60622 | 28825 ft | 449 kts | 145° |
| 2026-05-06 21:33 | 49.44358 | 12.64811 | 28832 ft | 449 kts | 146° |
| 2026-05-06 21:34 | 49.39816 | 12.69237 | 28825 ft | 447 kts | 155° |
| 2026-05-06 21:34 | 49.34381 | 12.71669 | 28827 ft | 443 kts | 177° |
| 2026-05-06 21:35 | 49.31311 | 12.71419 | 28836 ft | 443 kts | 190° |
| 2026-05-06 21:35 | 49.29106 | 12.70522 | 28846 ft | 443 kts | 199° |
| 2026-05-06 21:35 | 49.26311 | 12.68637 | 28407 ft | 435 kts | 204° |
| 2026-05-06 21:35 | 49.23553 | 12.66710 | 27270 ft | 436 kts | 200° |
| 2026-05-06 21:36 | 49.21073 | 12.65544 | 26247 ft | 438 kts | 195° |
| 2026-05-06 21:36 | 49.18680 | 12.64562 | 25200 ft | 443 kts | 194° |
| 2026-05-06 21:36 | 49.16309 | 12.63626 | 24173 ft | 447 kts | 194° |
| 2026-05-06 21:36 | 49.14055 | 12.62755 | 23344 ft | 449 kts | 194° |
| 2026-05-06 21:37 | 49.11048 | 12.61605 | 22327 ft | 445 kts | 194° |
| 2026-05-06 21:37 | 49.08041 | 12.60462 | 21434 ft | 440 kts | 194° |
| 2026-05-06 21:37 | 49.05093 | 12.59338 | 20622 ft | 435 kts | 194° |
| 2026-05-06 21:37 | 49.02681 | 12.58410 | 19973 ft | 431 kts | 194° |
| 2026-05-06 21:38 | 49.00457 | 12.57548 | 19414 ft | 427 kts | 194° |
| 2026-05-06 21:38 | 48.98118 | 12.56638 | 18822 ft | 423 kts | 195° |
| 2026-05-06 21:38 | 48.95284 | 12.55529 | 18119 ft | 418 kts | 195° |
| 2026-05-06 21:38 | 48.93430 | 12.54805 | 17616 ft | 415 kts | 195° |
| 2026-05-06 21:39 | 48.91127 | 12.53910 | 17005 ft | 411 kts | 195° |
| 2026-05-06 21:39 | 48.88368 | 12.52842 | 16293 ft | 406 kts | 195° |
| 2026-05-06 21:39 | 48.85647 | 12.51788 | 15607 ft | 401 kts | 195° |
| 2026-05-06 21:39 | 48.83827 | 12.51085 | 15157 ft | 399 kts | 195° |
| 2026-05-06 21:40 | 48.81775 | 12.50291 | 14655 ft | 396 kts | 196° |
| 2026-05-06 21:40 | 48.80022 | 12.49614 | 14226 ft | 393 kts | 196° |
| 2026-05-06 21:40 | 48.77305 | 12.48572 | 13558 ft | 390 kts | 196° |
| 2026-05-06 21:40 | 48.75419 | 12.47845 | 13322 ft | 378 kts | 197° |
| 2026-05-06 21:41 | 48.73379 | 12.47060 | 13449 ft | 358 kts | 197° |
| 2026-05-06 21:41 | 48.71021 | 12.46158 | 13303 ft | 344 kts | 197° |
| 2026-05-06 21:41 | 48.69307 | 12.45502 | 13202 ft | 334 kts | 197° |
| 2026-05-06 21:41 | 48.67643 | 12.44866 | 13105 ft | 324 kts | 197° |
| 2026-05-06 21:42 | 48.66063 | 12.44265 | 13011 ft | 315 kts | 197° |
| 2026-05-06 21:42 | 48.63981 | 12.43469 | 12876 ft | 303 kts | 198° |
| 2026-05-06 21:42 | 48.62085 | 12.42295 | 12743 ft | 288 kts | 214° |
| 2026-05-06 21:42 | 48.60562 | 12.40329 | 11952 ft | 297 kts | 227° |
| 2026-05-06 21:43 | 48.59335 | 12.38324 | 11109 ft | 310 kts | 228° |
| 2026-05-06 21:43 | 48.57854 | 12.35870 | 10096 ft | 325 kts | 229° |
| 2026-05-06 21:43 | 48.57352 | 12.35036 | 9752 ft | 329 kts | 229° |
| 2026-05-06 21:44 | 48.56709 | 12.33959 | 9138 ft | 335 kts | 229° |
| 2026-05-06 21:44 | 48.55405 | 12.31620 | 8124 ft | 348 kts | 231° |
| 2026-05-06 21:44 | 48.53777 | 12.28873 | 7188 ft | 352 kts | 230° |
| 2026-05-06 21:44 | 48.52113 | 12.26190 | 6661 ft | 345 kts | 229° |
| 2026-05-06 21:45 | 48.50522 | 12.23680 | 6477 ft | 315 kts | 229° |
| 2026-05-06 21:45 | 48.49078 | 12.21405 | 6327 ft | 285 kts | 230° |
| 2026-05-06 21:45 | 48.47790 | 12.19360 | 6200 ft | 260 kts | 230° |
| 2026-05-06 21:45 | 48.46611 | 12.17465 | 6062 ft | 236 kts | 231° |
| 2026-05-06 21:46 | 48.45544 | 12.15738 | 5861 ft | 218 kts | 232° |
| 2026-05-06 21:46 | 48.44746 | 12.14435 | 5515 ft | 214 kts | 232° |
| 2026-05-06 21:46 | 48.43748 | 12.12800 | 5053 ft | 211 kts | 232° |
| 2026-05-06 21:46 | 48.42760 | 12.11184 | 4908 ft | 211 kts | 232° |
| 2026-05-06 21:47 | 48.41769 | 12.09564 | 4912 ft | 207 kts | 232° |
| 2026-05-06 21:47 | 48.40818 | 12.08025 | 4910 ft | 195 kts | 232° |
| 2026-05-06 21:47 | 48.39925 | 12.06582 | 4938 ft | 180 kts | 232° |
| 2026-05-06 21:47 | 48.39108 | 12.05267 | 4914 ft | 163 kts | 232° |
| 2026-05-06 21:48 | 48.38382 | 12.04096 | 4905 ft | 149 kts | 233° |
| 2026-05-06 21:48 | 48.37693 | 12.02980 | 4906 ft | 143 kts | 234° |
| 2026-05-06 21:48 | 48.37167 | 12.02125 | 4910 ft | 141 kts | 234° |
| 2026-05-06 21:48 | 48.36606 | 12.01211 | 4914 ft | 141 kts | 234° |
| 2026-05-06 21:49 | 48.36072 | 12.00017 | 4908 ft | 137 kts | 257° |
| 2026-05-06 21:49 | 48.35938 | 11.98591 | 4887 ft | 142 kts | 263° |
| 2026-05-06 21:49 | 48.35778 | 11.97075 | 4304 ft | 154 kts | 263° |
| 2026-05-06 21:49 | 48.35631 | 11.95455 | 3777 ft | 156 kts | 264° |
| 2026-05-06 21:50 | 48.35500 | 11.93870 | 3453 ft | 147 kts | 266° |
| 2026-05-06 21:50 | 48.35384 | 11.92385 | 3191 ft | 140 kts | 265° |
| 2026-05-06 21:50 | 48.35307 | 11.91378 | 3038 ft | 138 kts | 265° |
| 2026-05-06 21:50 | 48.35200 | 11.89966 | 2825 ft | 136 kts | 264° |
| 2026-05-06 21:51 | 48.35095 | 11.88583 | 2647 ft | 136 kts | 264° |
| 2026-05-06 21:51 | 48.34986 | 11.87148 | 2436 ft | 137 kts | 263° |
| 2026-05-06 21:51 | 48.34887 | 11.85866 | 2258 ft | 137 kts | 262° |
| 2026-05-06 21:51 | 48.34800 | 11.84711 | 2077 ft | 136 kts | 261° |
| 2026-05-06 21:52 | 48.34685 | 11.83308 | 1867 ft | 137 kts | 262° |
| 2026-05-06 21:52 | 48.34575 | 11.81890 | 1704 ft | 136 kts | 262° |
| 2026-05-06 21:52 | 48.34478 | 11.80570 | 1556 ft | 137 kts | 262° |
| 2026-05-06 21:52 | 48.34366 | 11.79257 | 1473 ft | 125 kts | 263° |
| 2026-05-06 21:53 | 48.34298 | 11.78256 | 1468 ft | 54 kts | 266° |
| 2026-05-06 21:53 | 48.34288 | 11.78033 | 1472 ft | 24 kts | 266° |
| 2026-05-06 21:53 | 48.34274 | 11.77689 | 1469 ft | 36 kts | 274° |
| 2026-05-06 21:53 | 48.34254 | 11.77355 | 1468 ft | 31 kts | 261° |
| 2026-05-06 21:54 | 48.34306 | 11.77114 | 1465 ft | 20 kts | 297° |
| 2026-05-06 21:54 | 48.34360 | 11.76914 | 1466 ft | 21 kts | 291° |
| 2026-05-06 21:54 | 48.34419 | 11.76715 | 1466 ft | 20 kts | 299° |
| 2026-05-06 21:54 | 48.34538 | 11.76689 | 1459 ft | 18 kts | 354° |
| 2026-05-06 21:55 | 48.34658 | 11.76668 | 1463 ft | 17 kts | 353° |
| 2026-05-06 21:55 | 48.34734 | 11.76687 | 1466 ft | 16 kts | 45° |
| 2026-05-06 21:55 | 48.34757 | 11.76790 | 1466 ft | 14 kts | 83° |
| 2026-05-06 21:55 | 48.34763 | 11.76889 | 1466 ft | 13 kts | 86° |
| 2026-05-06 21:56 | 48.34769 | 11.77019 | 1464 ft | 12 kts | 83° |
| 2026-05-06 21:56 | 48.34779 | 11.77133 | 1465 ft | 10 kts | 79° |
| 2026-05-06 21:56 | 48.34791 | 11.77234 | 1466 ft | 9 kts | 79° |
| 2026-05-06 21:56 | 48.34798 | 11.77295 | 1457 ft | 8 kts | 80° |
| 2026-05-06 21:57 | 48.34787 | 11.77364 | 1461 ft | 6 kts | 129° |
| 2026-05-06 21:57 | 48.34756 | 11.77400 | 1464 ft | 5 kts | 153° |
| 2026-05-06 21:57 | 48.34745 | 11.77405 | 1461 ft | 4 kts | 165° |
| 2026-05-06 21:57 | 48.34719 | 11.77407 | 1460 ft | 3 kts | 179° |
| 2026-05-06 21:58 | 48.34708 | 11.77408 | 1466 ft | 2 kts | 179° |
| 2026-05-06 21:58 | 48.34699 | 11.77408 | 1466 ft | 1 kts | 179° |
| 2026-05-06 21:58 | 48.34698 | 11.77408 | 1466 ft | 0 kts | 179° |
| 2026-05-06 21:59 | 48.34683 | 11.77409 | 1466 ft | 4 kts | 179° |
| 2026-05-06 21:59 | 48.34640 | 11.77425 | 1463 ft | 9 kts | 142° |
| 2026-05-06 21:59 | 48.34631 | 11.77521 | 1464 ft | 10 kts | 82° |
| 2026-05-06 21:59 | 48.34637 | 11.77585 | 1463 ft | 9 kts | 82° |
| 2026-05-06 22:00 | 48.34645 | 11.77669 | 1465 ft | 7 kts | 82° |
| 2026-05-06 22:00 | 48.34651 | 11.77737 | 1462 ft | 6 kts | 83° |
| 2026-05-06 22:00 | 48.34654 | 11.77773 | 1459 ft | 5 kts | 83° |
| 2026-05-06 22:00 | 48.34656 | 11.77803 | 1460 ft | 4 kts | 83° |
| 2026-05-06 22:01 | 48.34660 | 11.77848 | 1466 ft | 6 kts | 83° |
| 2026-05-06 22:01 | 48.34664 | 11.77897 | 1466 ft | 9 kts | 83° |
| 2026-05-06 22:01 | 48.34675 | 11.78010 | 1466 ft | 12 kts | 75° |
| 2026-05-06 22:01 | 48.34692 | 11.78044 | 1462 ft | 4 kts | 27° |
| 2026-05-06 22:02 | 48.34717 | 11.78051 | 1459 ft | 6 kts | 357° |
| 2026-05-06 22:02 | 48.34743 | 11.78045 | 1463 ft | 6 kts | 352° |
| 2026-05-06 22:02 | 48.34790 | 11.78035 | 1464 ft | 7 kts | 353° |
| 2026-05-06 22:02 | 48.34838 | 11.78035 | 1461 ft | 7 kts | 13° |
| 2026-05-06 22:03 | 48.34872 | 11.78086 | 1463 ft | 7 kts | 68° |
| 2026-05-06 22:03 | 48.34878 | 11.78140 | 1466 ft | 8 kts | 83° |
| 2026-05-06 22:03 | 48.34885 | 11.78229 | 1463 ft | 9 kts | 83° |
| 2026-05-06 22:03 | 48.34903 | 11.78322 | 1461 ft | 9 kts | 71° |
| 2026-05-06 22:04 | 48.34909 | 11.78369 | 1462 ft | 1 kts | 84° |
| 2026-05-06 22:04 | 48.34909 | 11.78371 | 1462 ft | 0 kts | 84° |
| 2026-05-06 22:04 | 48.34910 | 11.78382 | 1466 ft | 0 kts | 84° |
| 2026-05-06 22:05 | 48.34911 | 11.78391 | 1466 ft | 0 kts | 84° |